Time;durP1;ratioP1;P1;durP2;ratioP2;P2;SDS_P1;SDS_P2;PMS_P1;PMS_P2;Temp;Humidity;BMP_temperature;BMP_pressure;BME280_temperature;BME280_humidity;BME280_pressure;Samples;Min_cycle;Max_cycle;Signal;HPM_P1;HPM_P2
2022/12/04 00:01:25;;;;;;;;;;;11.60;90.20;;;;;;5045148;28;19925;-62
2022/12/04 00:03:54;;;;;;;;;;;11.70;90.30;;;;;;4996656;28;19976;-62
2022/12/04 00:06:20;;;;;;;;;;;;;;;;;;5013152;28;20032;-62
2022/12/04 00:08:46;;;;;;;;;;;11.60;90.20;;;;;;5013956;28;20054;-62
2022/12/04 00:11:12;;;;;;;;;;;11.50;90.10;;;;;;5045993;28;19932;-62
2022/12/04 00:13:38;;;;;;;;;;;11.50;90.20;;;;;;5026233;28;19975;-62
2022/12/04 00:16:04;;;;;;;;;;;11.40;90.20;;;;;;5029266;28;19925;-62
2022/12/04 00:18:30;;;;;;;;;;;;;;;;;;5013405;28;19979;-62
2022/12/04 00:20:56;;;;;;;;;;;11.50;90.10;;;;;;5032328;28;19976;-63
2022/12/04 00:23:21;;;;;;;;;;;11.40;90.00;;;;;;5032386;28;19931;-62
2022/12/04 00:25:47;;;;;;;;;;;11.50;90.10;;;;;;5065801;28;19929;-62
2022/12/04 00:28:15;;;;;;;;;;;11.60;90.20;;;;;;5064852;28;20295;-62
2022/12/04 00:30:41;;;;;;;;;;;11.50;90.10;;;;;;5032902;28;19925;-63
2022/12/04 00:33:07;;;;;;;;;;;;;;;;;;5032626;28;20433;-62
2022/12/04 00:35:32;;;;;;;;;;;11.50;90.10;;;;;;5030665;28;20345;-62
2022/12/04 00:37:58;;;;;;;;;;;11.50;90.10;;;;;;5032698;28;19969;-62
2022/12/04 00:40:24;;;;;;;;;;;;;;;;;;5028975;28;19925;-63
2022/12/04 00:42:50;;;;;;;;;;;;;;;;;;5035252;28;19936;-63
2022/12/04 00:45:16;;;;;;;;;;;11.60;90.10;;;;;;5035369;28;19925;-63
2022/12/04 00:47:41;;;;;;;;;;;11.80;90.20;;;;;;5015666;28;19979;-63
2022/12/04 00:50:07;;;;;;;;;;;11.70;90.20;;;;;;5016767;28;19987;-63
2022/12/04 00:52:33;;;;;;;;;;;11.40;90.20;;;;;;5016195;28;19925;-62
2022/12/04 00:54:58;;;;;;;;;;;11.50;90.20;;;;;;5031617;28;19925;-63
2022/12/04 00:57:24;;;;;;;;;;;11.50;90.20;;;;;;5065509;28;20276;-63
2022/12/04 00:59:49;;;;;;;;;;;11.60;90.20;;;;;;5031586;28;19929;-62
2022/12/04 01:02:15;;;;;;;;;;;;;;;;;;5020344;28;19969;-63
2022/12/04 01:04:41;;;;;;;;;;;11.40;90.10;;;;;;5019842;28;19925;-64
2022/12/04 01:07:07;;;;;;;;;;;11.30;90.20;;;;;;5035806;28;19932;-62
2022/12/04 01:09:32;;;;;;;;;;;11.50;90.10;;;;;;5030694;28;19925;-62
2022/12/04 01:11:58;;;;;;;;;;;11.80;90.30;;;;;;5017594;28;19925;-64
2022/12/04 01:14:23;;;;;;;;;;;11.40;90.20;;;;;;5017780;28;19933;-62
2022/12/04 01:16:49;;;;;;;;;;;11.60;90.20;;;;;;5068653;28;19936;-67
2022/12/04 01:19:15;;;;;;;;;;;11.20;90.20;;;;;;5036042;28;20342;-66
2022/12/04 01:21:40;;;;;;;;;;;11.60;90.20;;;;;;5019510;28;19931;-66
2022/12/04 01:24:06;;;;;;;;;;;11.10;90.10;;;;;;5068765;28;19951;-67
2022/12/04 01:26:32;;;;;;;;;;;11.40;90.20;;;;;;5030718;28;19929;-67
2022/12/04 01:28:57;;;;;;;;;;;11.40;90.20;;;;;;5016077;28;19932;-66
2022/12/04 01:31:23;;;;;;;;;;;11.50;90.20;;;;;;5049210;28;20387;-67
2022/12/04 01:33:49;;;;;;;;;;;11.50;90.30;;;;;;5015603;28;19925;-67
2022/12/04 01:36:16;;;;;;;;;;;11.30;90.10;;;;;;5016708;28;19925;-67
2022/12/04 01:38:42;;;;;;;;;;;;;;;;;;5035211;28;19929;-66
2022/12/04 01:41:08;;;;;;;;;;;;;;;;;;5036616;28;20294;-67
2022/12/04 01:43:34;;;;;;;;;;;11.70;90.20;;;;;;5067402;28;20080;-66
2022/12/04 01:46:00;;;;;;;;;;;11.60;90.30;;;;;;5035760;28;19995;-66
2022/12/04 01:48:26;;;;;;;;;;;11.50;90.30;;;;;;5036717;28;20354;-66
2022/12/04 01:50:52;;;;;;;;;;;11.60;90.30;;;;;;5036700;28;20310;-67
2022/12/04 01:53:18;;;;;;;;;;;11.60;90.30;;;;;;5035495;28;19979;-67
2022/12/04 01:55:44;;;;;;;;;;;11.30;90.20;;;;;;5036208;28;20362;-67
2022/12/04 01:58:09;;;;;;;;;;;11.40;90.20;;;;;;5035130;28;19982;-66
2022/12/04 02:00:35;;;;;;;;;;;11.60;90.20;;;;;;5061079;28;20299;-67
2022/12/04 02:03:00;;;;;;;;;;;11.60;90.20;;;;;;5024862;28;19925;-66
2022/12/04 02:05:26;;;;;;;;;;;11.60;90.20;;;;;;5036038;28;19925;-67
2022/12/04 02:07:52;;;;;;;;;;;11.50;90.10;;;;;;5034788;28;19986;-67
2022/12/04 02:10:23;;;;;;;;;;;11.40;90.10;;;;;;5034529;28;20390;-66
2022/12/04 02:13:01;;;;;;;;;;;11.30;90.10;;;;;;5034013;28;19958;-66
2022/12/04 02:15:27;;;;;;;;;;;11.50;90.10;;;;;;5034340;28;19932;-66
2022/12/04 02:17:56;;;;;;;;;;;11.40;90.00;;;;;;5027051;28;19925;-66
2022/12/04 02:20:24;;;;;;;;;;;11.60;90.10;;;;;;5034804;28;19932;-66
2022/12/04 02:23:02;;;;;;;;;;;11.40;90.10;;;;;;5061577;28;19930;-66
2022/12/04 02:25:27;;;;;;;;;;;11.30;90.10;;;;;;5062273;28;19925;-66
2022/12/04 02:28:01;;;;;;;;;;;11.30;90.10;;;;;;5067617;28;20383;-66
2022/12/04 02:30:27;;;;;;;;;;;11.40;90.10;;;;;;5051322;28;19999;-66
2022/12/04 02:33:19;;;;;;;;;;;11.30;90.00;;;;;;5030821;28;20430;-66
2022/12/04 02:35:46;;;;;;;;;;;11.40;90.10;;;;;;5048075;28;20307;-66
2022/12/04 02:38:14;;;;;;;;;;;11.40;90.10;;;;;;4998089;28;19926;-66
2022/12/04 02:40:40;;;;;;;;;;;;;;;;;;5021414;28;19929;-66
2022/12/04 02:43:06;;;;;;;;;;;;;;;;;;5034356;28;19928;-67
2022/12/04 02:45:33;;;;;;;;;;;11.40;90.10;;;;;;5017594;28;20313;-66
2022/12/04 02:47:59;;;;;;;;;;;11.30;90.00;;;;;;5067424;28;19927;-66
2022/12/04 02:50:25;;;;;;;;;;;11.50;90.10;;;;;;5050521;28;19925;-66
2022/12/04 02:53:12;;;;;;;;;;;11.40;90.10;;;;;;5018596;28;20367;-67
2022/12/04 02:55:39;;;;;;;;;;;11.30;90.00;;;;;;5015666;28;20019;-66
2022/12/04 02:58:06;;;;;;;;;;;11.40;89.90;;;;;;5015652;28;19925;-66
2022/12/04 03:00:31;;;;;;;;;;;11.60;90.10;;;;;;5032742;28;19933;-66
2022/12/04 03:02:58;;;;;;;;;;;11.40;90.00;;;;;;5066220;28;19994;-66
2022/12/04 03:05:37;;;;;;;;;;;11.10;89.90;;;;;;5033278;28;19926;-66
2022/12/04 03:08:04;;;;;;;;;;;11.50;90.00;;;;;;5021899;28;19995;-66
2022/12/04 03:10:34;;;;;;;;;;;11.20;90.00;;;;;;5033301;28;20041;-66
2022/12/04 03:13:16;;;;;;;;;;;11.60;90.00;;;;;;5015922;28;19929;-67
2022/12/04 03:15:52;;;;;;;;;;;11.20;89.80;;;;;;5031439;28;19926;-66
2022/12/04 03:18:21;;;;;;;;;;;11.10;89.90;;;;;;5032960;28;19925;-66
2022/12/04 03:20:47;;;;;;;;;;;11.50;90.00;;;;;;5033667;28;19925;-66
2022/12/04 03:23:17;;;;;;;;;;;11.40;89.90;;;;;;5032757;28;19925;-67
2022/12/04 03:25:45;;;;;;;;;;;11.30;89.90;;;;;;5015602;28;19932;-67
2022/12/04 03:28:11;;;;;;;;;;;;;;;;;;5030543;28;19929;-66
2022/12/04 03:30:41;;;;;;;;;;;11.50;90.00;;;;;;5033863;28;20063;-67
2022/12/04 03:33:06;;;;;;;;;;;11.30;89.90;;;;;;5015713;28;19925;-66
2022/12/04 03:35:32;;;;;;;;;;;;;;;;;;5033977;28;19932;-66
2022/12/04 03:38:17;;;;;;;;;;;11.20;89.00;;;;;;5031027;28;19925;-67
2022/12/04 03:40:47;;;;;;;;;;;11.20;89.90;;;;;;5017514;28;19925;-67
2022/12/04 03:43:15;;;;;;;;;;;11.20;89.90;;;;;;5032422;28;20379;-62
2022/12/04 03:45:40;;;;;;;;;;;11.50;90.00;;;;;;5034507;28;19932;-62
2022/12/04 03:48:19;;;;;;;;;;;11.20;89.90;;;;;;5031741;28;19925;-62
2022/12/04 03:50:59;;;;;;;;;;;11.30;90.00;;;;;;5033806;28;20019;-64
2022/12/04 03:53:45;;;;;;;;;;;11.30;89.90;;;;;;5015982;28;20354;-62
2022/12/04 03:56:12;;;;;;;;;;;11.40;90.00;;;;;;5033220;28;19970;-63
2022/12/04 03:58:39;;;;;;;;;;;11.40;90.00;;;;;;5032623;28;20015;-62
2022/12/04 04:01:06;;;;;;;;;;;11.30;89.90;;;;;;5032349;28;19929;-62
2022/12/04 04:03:35;;;;;;;;;;;11.40;90.00;;;;;;5025365;28;19955;-66
2022/12/04 04:06:11;;;;;;;;;;;11.40;90.00;;;;;;5012247;28;19933;-66
2022/12/04 04:08:37;;;;;;;;;;;11.20;89.80;;;;;;5045226;28;19925;-67
2022/12/04 04:11:12;;;;;;;;;;;11.40;90.00;;;;;;5012992;28;19933;-68
2022/12/04 04:24:39;;;;;;;;;;;11.40;89.90;;;;;;5053396;28;19937;-67
2022/12/04 04:27:05;;;;;;;;;;;11.40;89.90;;;;;;5013983;28;20310;-67
2022/12/04 04:29:30;;;;;;;;;;;11.20;89.20;;;;;;5013990;28;19972;-67
2022/12/04 04:32:06;;;;;;;;;;;11.30;90.00;;;;;;5012963;28;19926;-66
2022/12/04 04:34:44;;;;;;;;;;;11.40;90.00;;;;;;5006408;28;20310;-67
2022/12/04 04:37:19;;;;;;;;;;;11.20;90.00;;;;;;5012959;28;19952;-67
2022/12/04 04:39:47;;;;;;;;;;;11.40;90.00;;;;;;5012481;28;19925;-67
2022/12/04 04:42:13;;;;;;;;;;;;;;;;;;5016537;28;20409;-67
2022/12/04 04:44:47;;;;;;;;;;;11.20;89.90;;;;;;5033792;28;19929;-67
2022/12/04 04:47:15;;;;;;;;;;;11.30;90.00;;;;;;5032355;28;19931;-66
2022/12/04 04:49:41;;;;;;;;;;;;;;;;;;5032513;28;19933;-67
2022/12/04 04:52:07;;;;;;;;;;;;;;;;;;5031587;28;19925;-67
2022/12/04 04:54:33;;;;;;;;;;;11.20;90.00;;;;;;5032549;28;20086;-67
2022/12/04 04:56:58;;;;;;;;;;;11.10;90.00;;;;;;5046233;28;20006;-67
2022/12/04 04:59:24;;;;;;;;;;;10.90;89.90;;;;;;5032174;28;20024;-67
2022/12/04 05:01:50;;;;;;;;;;;11.20;89.90;;;;;;5049693;28;19936;-67
2022/12/04 05:04:15;;;;;;;;;;;11.20;90.00;;;;;;5030151;28;20335;-67
2022/12/04 05:06:41;;;;;;;;;;;11.20;89.90;;;;;;5030741;28;20019;-67
2022/12/04 05:09:06;;;;;;;;;;;11.10;89.90;;;;;;5027888;28;19926;-67
2022/12/04 05:11:32;;;;;;;;;;;11.00;89.80;;;;;;5030633;28;19976;-67
2022/12/04 05:13:57;;;;;;;;;;;10.90;89.70;;;;;;5063230;28;19931;-67
2022/12/04 05:16:23;;;;;;;;;;;11.00;89.70;;;;;;5065203;28;19925;-67
2022/12/04 05:21:33;;;;;;;;;;;11.10;89.90;;;;;;5035942;28;19932;-67
2022/12/04 05:23:59;;;;;;;;;;;11.10;89.90;;;;;;5055873;28;20318;-67
2022/12/04 05:26:24;;;;;;;;;;;11.20;90.00;;;;;;5035609;28;19975;-67
2022/12/04 05:28:50;;;;;;;;;;;11.00;89.80;;;;;;5037102;28;20016;-63
2022/12/04 05:31:15;;;;;;;;;;;11.00;89.80;;;;;;5037070;28;19925;-64
2022/12/04 05:33:41;;;;;;;;;;;11.00;89.80;;;;;;5036968;28;20370;-62
2022/12/04 05:36:08;;;;;;;;;;;11.00;89.80;;;;;;5022734;28;20379;-63
2022/12/04 05:38:33;;;;;;;;;;;11.30;89.40;;;;;;5051346;28;20294;-63
2022/12/04 05:40:59;;;;;;;;;;;11.10;89.80;;;;;;5049820;28;20024;-65
2022/12/04 05:43:25;;;;;;;;;;;;;;;;;;4999140;28;20005;-62
2022/12/04 05:45:51;;;;;;;;;;;11.00;89.80;;;;;;5015462;28;20028;-64
2022/12/04 05:48:16;;;;;;;;;;;10.80;89.80;;;;;;4999400;28;19925;-64
2022/12/04 05:50:42;;;;;;;;;;;11.00;89.80;;;;;;5016679;28;19929;-63
2022/12/04 05:53:08;;;;;;;;;;;10.60;89.70;;;;;;4982768;28;19932;-65
2022/12/04 05:55:33;;;;;;;;;;;10.80;89.80;;;;;;5017434;28;19925;-63
2022/12/04 05:57:59;;;;;;;;;;;10.80;89.80;;;;;;5034734;28;19952;-63
2022/12/04 06:00:24;;;;;;;;;;;10.90;89.80;;;;;;5016024;28;19926;-63
2022/12/04 06:02:50;;;;;;;;;;;;;;;;;;5048559;28;19972;-62
2022/12/04 06:05:16;;;;;;;;;;;;;;;;;;5015064;28;20379;-63
2022/12/04 06:07:42;;;;;;;;;;;11.10;89.90;;;;;;5015209;28;19925;-62
2022/12/04 06:10:08;;;;;;;;;;;11.10;89.90;;;;;;5015322;28;20360;-62
2022/12/04 06:12:33;;;;;;;;;;;10.70;89.70;;;;;;5028403;28;19926;-62
2022/12/04 06:14:59;;;;;;;;;;;10.90;89.90;;;;;;5034157;28;20337;-62
2022/12/04 06:17:24;;;;;;;;;;;11.10;90.00;;;;;;5024824;28;20310;-64
2022/12/04 06:19:52;;;;;;;;;;;10.90;89.80;;;;;;5066426;28;20398;-63
2022/12/04 06:22:17;;;;;;;;;;;;;;;;;;5065144;28;19926;-63
2022/12/04 06:24:43;;;;;;;;;;;11.20;89.80;;;;;;5033496;28;19933;-62
2022/12/04 06:27:09;;;;;;;;;;;;;;;;;;5064779;28;20423;-63
2022/12/04 06:29:35;;;;;;;;;;;11.00;89.80;;;;;;5040802;28;20409;-62
2022/12/04 06:32:00;;;;;;;;;;;11.00;90.00;;;;;;5032160;28;19965;-62
2022/12/04 06:34:26;;;;;;;;;;;;;;;;;;5014768;28;20286;-62
2022/12/04 06:36:52;;;;;;;;;;;11.20;90.00;;;;;;5035735;28;20032;-62
2022/12/04 06:39:18;;;;;;;;;;;11.10;90.00;;;;;;5034136;28;19925;-62
2022/12/04 06:41:43;;;;;;;;;;;11.00;89.90;;;;;;5036040;28;19925;-63
2022/12/04 06:44:09;;;;;;;;;;;11.20;90.00;;;;;;5067389;28;19929;-63
2022/12/04 06:46:35;;;;;;;;;;;10.90;89.80;;;;;;5020742;28;19929;-63
2022/12/04 06:49:01;;;;;;;;;;;11.10;90.00;;;;;;5065802;28;20306;-63
2022/12/04 06:51:30;;;;;;;;;;;11.30;90.10;;;;;;5016300;28;19926;-63
2022/12/04 06:53:56;;;;;;;;;;;10.90;89.80;;;;;;4997882;28;19932;-62
2022/12/04 06:56:23;;;;;;;;;;;11.10;90.00;;;;;;5015334;28;20287;-62
2022/12/04 06:58:49;;;;;;;;;;;11.10;90.00;;;;;;5015615;28;19973;-62
2022/12/04 07:01:16;;;;;;;;;;;11.00;90.00;;;;;;5014348;28;19925;-62
2022/12/04 07:03:42;;;;;;;;;;;11.00;90.00;;;;;;5018949;28;20343;-62
2022/12/04 07:06:08;;;;;;;;;;;;;;;;;;5032112;28;20003;-63
2022/12/04 07:08:33;;;;;;;;;;;11.00;90.00;;;;;;5013854;28;19975;-63
2022/12/04 07:11:00;;;;;;;;;;;11.10;90.00;;;;;;5014136;28;19977;-62
2022/12/04 07:13:26;;;;;;;;;;;10.90;90.00;;;;;;5018524;28;19925;-62
2022/12/04 07:15:51;;;;;;;;;;;11.20;90.10;;;;;;5035052;28;19948;-63
2022/12/04 07:18:17;;;;;;;;;;;10.90;89.60;;;;;;5034858;28;19951;-64
2022/12/04 07:20:43;;;;;;;;;;;11.20;90.10;;;;;;5066227;28;19925;-63
2022/12/04 07:23:08;;;;;;;;;;;11.00;90.00;;;;;;5029952;28;19926;-63
2022/12/04 07:25:37;;;;;;;;;;;11.00;90.00;;;;;;5015173;28;19925;-63
2022/12/04 07:28:03;;;;;;;;;;;11.10;90.10;;;;;;5011371;28;19994;-65
2022/12/04 07:30:29;;;;;;;;;;;11.00;90.00;;;;;;5066514;28;20012;-63
2022/12/04 07:32:54;;;;;;;;;;;11.20;90.20;;;;;;5066512;28;19925;-62
2022/12/04 07:35:20;;;;;;;;;;;11.20;90.20;;;;;;5035225;28;19929;-62
2022/12/04 07:37:46;;;;;;;;;;;10.90;90.10;;;;;;5049477;28;19925;-63
2022/12/04 07:40:12;;;;;;;;;;;11.00;90.10;;;;;;5029586;28;19932;-63
2022/12/04 07:42:37;;;;;;;;;;;11.20;90.20;;;;;;5014294;28;19988;-62
2022/12/04 07:45:03;;;;;;;;;;;11.10;90.20;;;;;;5013439;28;20388;-62
2022/12/04 07:47:29;;;;;;;;;;;10.90;90.10;;;;;;5014507;28;19936;-63
2022/12/04 07:49:55;;;;;;;;;;;11.00;89.60;;;;;;5013192;28;19925;-63
2022/12/04 07:52:20;;;;;;;;;;;11.20;90.20;;;;;;5013506;28;20356;-63
2022/12/04 07:54:46;;;;;;;;;;;11.20;90.20;;;;;;5018165;28;20011;-62
2022/12/04 07:57:11;;;;;;;;;;;11.00;90.20;;;;;;5029184;28;19979;-63
2022/12/04 07:59:38;;;;;;;;;;;11.20;90.20;;;;;;5014312;28;19926;-62
2022/12/04 08:02:04;;;;;;;;;;;11.00;90.20;;;;;;5014862;28;20377;-63
2022/12/04 08:04:30;;;;;;;;;;;11.30;90.20;;;;;;5014553;28;20020;-63
2022/12/04 08:06:55;;;;;;;;;;;11.10;90.20;;;;;;5014511;28;20023;-63
2022/12/04 08:09:21;;;;;;;;;;;11.10;90.20;;;;;;5014330;28;19925;-64
2022/12/04 08:11:46;;;;;;;;;;;11.00;90.10;;;;;;5016946;28;19964;-62
2022/12/04 08:14:12;;;;;;;;;;;11.00;90.10;;;;;;5031655;28;19940;-62
2022/12/04 08:16:38;;;;;;;;;;;11.10;90.10;;;;;;5034062;28;19929;-63
2022/12/04 08:19:04;;;;;;;;;;;11.20;90.10;;;;;;5034135;28;19925;-62
2022/12/04 08:21:30;;;;;;;;;;;11.00;90.10;;;;;;5032338;28;19929;-63
2022/12/04 08:23:56;;;;;;;;;;;11.10;90.20;;;;;;5033488;28;19987;-63
2022/12/04 08:26:22;;;;;;;;;;;11.10;90.10;;;;;;5032478;28;19925;-63
2022/12/04 08:28:48;;;;;;;;;;;11.10;90.10;;;;;;5016688;28;19929;-62
2022/12/04 08:31:14;;;;;;;;;;;;;;;;;;5048113;28;20379;-62
2022/12/04 08:33:40;;;;;;;;;;;11.10;90.10;;;;;;5021745;28;19926;-63
2022/12/04 08:36:06;;;;;;;;;;;10.90;90.00;;;;;;5028624;28;19925;-63
2022/12/04 08:38:32;;;;;;;;;;;11.10;90.10;;;;;;5030432;28;19932;-62
2022/12/04 08:41:01;;;;;;;;;;;11.20;90.10;;;;;;5022270;28;20402;-65
2022/12/04 08:43:27;;;;;;;;;;;11.10;90.10;;;;;;5065584;28;19926;-63
2022/12/04 08:45:56;;;;;;;;;;;11.00;89.70;;;;;;5033858;28;19948;-63
2022/12/04 08:48:22;;;;;;;;;;;11.20;90.20;;;;;;5028871;28;19932;-63
2022/12/04 08:50:47;;;;;;;;;;;11.20;90.20;;;;;;5022340;28;20383;-62
2022/12/04 08:53:13;;;;;;;;;;;11.10;90.10;;;;;;5030873;28;20032;-64
2022/12/04 08:55:39;;;;;;;;;;;11.10;89.90;;;;;;5065664;28;20399;-64
2022/12/04 08:58:04;;;;;;;;;;;11.10;90.10;;;;;;5068925;28;19936;-62
2022/12/04 09:00:30;;;;;;;;;;;;;;;;;;5037670;28;19925;-62
2022/12/04 09:02:56;;;;;;;;;;;11.30;90.20;;;;;;5035964;28;19929;-63
2022/12/04 09:05:21;;;;;;;;;;;11.30;90.20;;;;;;5036409;28;19925;-63
2022/12/04 09:07:47;;;;;;;;;;;11.10;90.10;;;;;;5037383;28;19925;-63
2022/12/04 09:10:13;;;;;;;;;;;11.20;90.10;;;;;;5036734;28;19925;-62
2022/12/04 09:12:38;;;;;;;;;;;11.20;90.10;;;;;;5051556;28;19936;-63
2022/12/04 09:15:04;;;;;;;;;;;11.40;90.20;;;;;;5068940;28;19931;-65
2022/12/04 09:17:30;;;;;;;;;;;11.10;90.10;;;;;;5020118;28;19926;-62
2022/12/04 09:19:56;;;;;;;;;;;;;;;;;;5037258;28;20375;-62
2022/12/04 09:22:22;;;;;;;;;;;;;;;;;;5030601;28;19925;-62
2022/12/04 09:24:48;;;;;;;;;;;11.20;90.00;;;;;;5066993;28;19936;-62
2022/12/04 09:27:14;;;;;;;;;;;;;;;;;;5037124;28;19925;-62
2022/12/04 09:29:40;;;;;;;;;;;11.30;90.10;;;;;;5035834;28;19987;-62
2022/12/04 09:32:06;;;;;;;;;;;;;;;;;;5035432;28;19968;-62
2022/12/04 09:34:32;;;;;;;;;;;;;;;;;;5034162;28;19925;-63
2022/12/04 09:36:57;;;;;;;;;;;11.10;90.00;;;;;;5037434;28;20451;-62
2022/12/04 09:39:23;;;;;;;;;;;11.30;90.00;;;;;;5063684;28;19932;-62
2022/12/04 09:41:52;;;;;;;;;;;11.20;90.00;;;;;;5016780;28;20310;-64
2022/12/04 09:44:27;;;;;;;;;;;11.50;90.10;;;;;;5032331;28;20265;-62
2022/12/04 09:47:00;;;;;;;;;;;11.30;90.00;;;;;;5018103;28;19925;-62
2022/12/04 09:49:27;;;;;;;;;;;11.00;90.00;;;;;;5018704;28;19925;-62
2022/12/04 09:51:54;;;;;;;;;;;;;;;;;;5018886;28;19925;-62
2022/12/04 09:54:20;;;;;;;;;;;11.20;90.00;;;;;;5034256;28;19929;-62
2022/12/04 09:56:49;;;;;;;;;;;11.30;90.00;;;;;;5028247;28;19926;-62
2022/12/04 09:59:15;;;;;;;;;;;;;;;;;;5015575;28;20303;-62
2022/12/04 10:01:41;;;;;;;;;;;11.20;89.90;;;;;;5015177;28;19925;-62
2022/12/04 10:04:07;;;;;;;;;;;11.40;89.90;;;;;;5030131;28;19932;-62
2022/12/04 10:06:56;;;;;;;;;;;11.20;89.90;;;;;;5050445;28;19925;-63
2022/12/04 10:09:42;;;;;;;;;;;11.20;90.00;;;;;;5036812;28;19925;-62
2022/12/04 10:12:08;;;;;;;;;;;;;;;;;;5042075;28;19971;-62
2022/12/04 10:14:52;;;;;;;;;;;11.20;89.90;;;;;;5021355;28;19925;-62
2022/12/04 10:17:18;;;;;;;;;;;11.30;90.00;;;;;;5029690;28;20371;-67
2022/12/04 10:19:47;;;;;;;;;;;11.30;90.00;;;;;;5068256;28;19925;-63
2022/12/04 10:22:12;;;;;;;;;;;11.50;90.00;;;;;;5033594;28;19932;-62
2022/12/04 10:24:44;;;;;;;;;;;11.30;89.90;;;;;;5067647;28;20271;-62
2022/12/04 10:27:10;;;;;;;;;;;;;;;;;;5033811;28;19929;-64
2022/12/04 10:29:36;;;;;;;;;;;11.40;89.80;;;;;;5034653;28;19925;-62
2022/12/04 10:32:13;;;;;;;;;;;11.30;89.90;;;;;;5017207;28;20079;-62
2022/12/04 10:34:38;;;;;;;;;;;11.20;89.70;;;;;;5035966;28;19925;-62
2022/12/04 10:37:05;;;;;;;;;;;11.40;89.70;;;;;;5016865;28;19936;-62
2022/12/04 10:39:34;;;;;;;;;;;11.20;89.60;;;;;;5048526;28;20019;-62
2022/12/04 10:42:18;;;;;;;;;;;11.00;89.60;;;;;;5067359;28;19963;-63
2022/12/04 10:44:43;;;;;;;;;;;11.30;89.80;;;;;;5035311;28;19925;-62
2022/12/04 10:47:09;;;;;;;;;;;11.30;89.80;;;;;;5032201;28;19936;-63
2022/12/04 10:49:35;;;;;;;;;;;11.50;89.80;;;;;;5023981;28;19960;-62
2022/12/04 10:52:01;;;;;;;;;;;11.30;89.70;;;;;;5035854;28;20006;-62
2022/12/04 10:54:30;;;;;;;;;;;11.20;89.60;;;;;;5035180;28;19925;-62
2022/12/04 10:56:56;;;;;;;;;;;;;;;;;;5030458;28;19932;-62
2022/12/04 10:59:21;;;;;;;;;;;11.40;89.60;;;;;;5035101;28;19925;-62
2022/12/04 11:01:47;;;;;;;;;;;11.40;89.50;;;;;;5016782;28;20595;-62
2022/12/04 11:04:20;;;;;;;;;;;11.50;89.50;;;;;;5000842;28;20306;-62
2022/12/04 11:06:46;;;;;;;;;;;11.60;89.70;;;;;;5017530;28;19948;-63
2022/12/04 11:09:12;;;;;;;;;;;;;;;;;;5049134;28;19925;-63
2022/12/04 11:11:38;;;;;;;;;;;11.70;89.60;;;;;;5031089;28;19925;-62
2022/12/04 11:14:12;;;;;;;;;;;11.50;89.40;;;;;;5016745;28;19943;-62
2022/12/04 11:16:39;;;;;;;;;;;11.50;89.50;;;;;;5066695;28;19933;-62
2022/12/04 11:19:19;;;;;;;;;;;11.70;89.60;;;;;;5032785;28;20402;-63
2022/12/04 11:21:45;;;;;;;;;;;11.70;89.60;;;;;;5026637;28;19929;-63
2022/12/04 11:24:37;;;;;;;;;;;11.60;89.50;;;;;;4997125;28;19976;-63
2022/12/04 11:27:03;;;;;;;;;;;;;;;;;;5013284;28;19925;-64
2022/12/04 11:29:32;;;;;;;;;;;11.50;89.50;;;;;;5015955;28;20288;-62
2022/12/04 11:31:58;;;;;;;;;;;11.30;89.40;;;;;;5066530;28;19925;-63
2022/12/04 11:34:25;;;;;;;;;;;11.80;89.70;;;;;;5034758;28;20341;-63
2022/12/04 11:36:52;;;;;;;;;;;11.40;89.60;;;;;;5049885;28;20294;-62
2022/12/04 11:39:19;;;;;;;;;;;11.50;89.70;;;;;;5029114;28;20024;-62
2022/12/04 11:41:45;;;;;;;;;;;11.50;89.70;;;;;;4997345;28;20348;-63
2022/12/04 11:44:24;;;;;;;;;;;11.70;89.80;;;;;;5013268;28;20019;-62
2022/12/04 11:46:50;;;;;;;;;;;11.40;89.70;;;;;;5014823;28;19926;-63
2022/12/04 11:49:16;;;;;;;;;;;;;;;;;;5055295;28;19925;-64
2022/12/04 11:51:42;;;;;;;;;;;;;;;;;;5034079;28;19925;-64
2022/12/04 11:54:21;;;;;;;;;;;11.40;89.60;;;;;;5032918;28;19925;-63
2022/12/04 11:57:13;;;;;;;;;;;11.40;89.00;;;;;;5049403;28;20305;-63
2022/12/04 11:59:51;;;;;;;;;;;11.40;89.70;;;;;;5031167;28;19935;-63
2022/12/04 12:02:26;;;;;;;;;;;11.30;89.70;;;;;;5066453;28;20303;-62
2022/12/04 12:04:54;;;;;;;;;;;11.40;89.60;;;;;;5065963;28;19972;-63
2022/12/04 12:07:23;;;;;;;;;;;11.50;89.50;;;;;;5065925;28;19933;-63
2022/12/04 12:09:50;;;;;;;;;;;11.60;89.70;;;;;;5064195;28;20406;-63
2022/12/04 12:12:18;;;;;;;;;;;11.50;89.70;;;;;;5029378;28;19972;-62
2022/12/04 12:14:50;;;;;;;;;;;11.40;89.70;;;;;;5013185;28;19932;-63
2022/12/04 12:17:20;;;;;;;;;;;11.60;89.80;;;;;;5012827;28;20310;-63
2022/12/04 12:19:46;;;;;;;;;;;11.50;89.60;;;;;;5032129;28;19976;-63
2022/12/04 12:22:25;;;;;;;;;;;11.70;89.80;;;;;;5066083;28;19988;-63
2022/12/04 12:25:09;;;;;;;;;;;11.60;89.80;;;;;;5065807;28;19932;-63
2022/12/04 12:27:43;;;;;;;;;;;11.80;89.90;;;;;;5064985;28;19925;-63
2022/12/04 12:30:11;;;;;;;;;;;11.50;89.70;;;;;;5058895;28;19925;-67
2022/12/04 12:32:36;;;;;;;;;;;11.70;90.00;;;;;;5049018;28;19933;-63
2022/12/04 12:35:02;;;;;;;;;;;11.50;89.90;;;;;;5065904;28;19925;-63
2022/12/04 12:37:31;;;;;;;;;;;11.80;90.00;;;;;;5010655;28;19977;-63
2022/12/04 12:40:02;;;;;;;;;;;11.40;89.80;;;;;;5032281;28;20283;-63
2022/12/04 12:42:28;;;;;;;;;;;;;;;;;;5033830;28;20004;-62
2022/12/04 12:45:05;;;;;;;;;;;11.60;90.10;;;;;;5032276;28;20449;-63
2022/12/04 12:47:36;;;;;;;;;;;11.60;90.10;;;;;;5017532;28;19991;-62
2022/12/04 12:50:03;;;;;;;;;;;11.50;90.00;;;;;;5015231;28;19929;-63
2022/12/04 12:52:31;;;;;;;;;;;11.60;90.10;;;;;;5048875;28;19929;-63
2022/12/04 12:55:32;;;;;;;;;;;11.70;90.10;;;;;;5015438;28;19998;-63
2022/12/04 12:57:59;;;;;;;;;;;11.40;90.20;;;;;;5071420;28;20015;-64
2022/12/04 13:00:25;;;;;;;;;;;11.70;90.20;;;;;;5069156;28;19933;-63
2022/12/04 13:03:05;;;;;;;;;;;11.60;90.10;;;;;;5069950;28;20301;-62
2022/12/04 13:05:38;;;;;;;;;;;11.70;90.20;;;;;;5034573;28;20019;-63
2022/12/04 13:08:05;;;;;;;;;;;11.50;90.20;;;;;;5034663;28;19972;-62
2022/12/04 13:10:34;;;;;;;;;;;11.40;90.10;;;;;;5051142;28;20449;-62
2022/12/04 13:13:00;;;;;;;;;;;;;;;;;;5067899;28;19924;-63
2022/12/04 13:15:29;;;;;;;;;;;11.60;90.10;;;;;;5060640;28;19971;-63
2022/12/04 13:17:54;;;;;;;;;;;11.60;89.80;;;;;;5050408;28;19935;-63
2022/12/04 13:20:30;;;;;;;;;;;11.90;90.30;;;;;;5061007;28;19925;-63
2022/12/04 13:23:19;;;;;;;;;;;11.70;90.20;;;;;;5019622;28;19963;-62
2022/12/04 13:25:51;;;;;;;;;;;11.50;90.20;;;;;;5047189;28;20352;-63
2022/12/04 13:28:25;;;;;;;;;;;11.50;90.20;;;;;;5086600;28;19930;-63
2022/12/04 13:30:52;;;;;;;;;;;;;;;;;;5086003;28;20285;-63
2022/12/04 13:33:18;;;;;;;;;;;;;;;;;;5033403;28;19925;-62
2022/12/04 13:35:44;;;;;;;;;;;;;;;;;;5031758;28;19947;-65
2022/12/04 13:38:30;;;;;;;;;;;11.50;90.30;;;;;;5029244;28;19936;-63
2022/12/04 13:40:57;;;;;;;;;;;11.60;90.20;;;;;;5032069;28;19925;-63
2022/12/04 13:43:23;;;;;;;;;;;;;;;;;;5019019;28;19925;-64
2022/12/04 13:45:49;;;;;;;;;;;11.60;90.30;;;;;;5035134;28;20406;-63
2022/12/04 13:48:24;;;;;;;;;;;11.50;90.20;;;;;;5065729;28;19929;-63
2022/12/04 13:50:50;;;;;;;;;;;;;;;;;;5035139;28;19925;-64
2022/12/04 13:53:36;;;;;;;;;;;11.50;90.20;;;;;;5034070;28;19925;-63
2022/12/04 13:56:02;;;;;;;;;;;11.70;90.20;;;;;;5050284;28;19987;-62
2022/12/04 13:58:28;;;;;;;;;;;11.80;90.20;;;;;;5035121;28;19925;-65
2022/12/04 14:01:01;;;;;;;;;;;11.40;90.00;;;;;;5018805;28;19932;-65
2022/12/04 14:03:28;;;;;;;;;;;11.70;90.20;;;;;;5068552;28;19925;-63
2022/12/04 14:05:54;;;;;;;;;;;;;;;;;;5018354;28;19932;-64
2022/12/04 14:08:19;;;;;;;;;;;11.60;90.10;;;;;;5033126;28;19925;-63
2022/12/04 14:10:45;;;;;;;;;;;;;;;;;;5035917;28;19973;-63
2022/12/04 14:13:11;;;;;;;;;;;11.40;90.10;;;;;;5016360;28;20024;-62
2022/12/04 14:15:37;;;;;;;;;;;11.40;90.10;;;;;;5050934;28;19926;-62
2022/12/04 14:18:12;;;;;;;;;;;11.70;90.10;;;;;;5028996;28;19931;-63
2022/12/04 14:20:38;;;;;;;;;;;11.30;90.10;;;;;;5036187;28;20293;-63
2022/12/04 14:23:24;;;;;;;;;;;11.40;90.10;;;;;;5018461;28;19925;-63
2022/12/04 14:25:54;;;;;;;;;;;11.40;90.10;;;;;;5035751;28;20028;-62
2022/12/04 14:28:24;;;;;;;;;;;11.40;90.10;;;;;;5050953;28;19932;-63
2022/12/04 14:31:08;;;;;;;;;;;11.60;90.10;;;;;;5027570;28;19931;-62
2022/12/04 14:33:37;;;;;;;;;;;11.40;90.20;;;;;;5035923;28;19988;-62
2022/12/04 14:36:07;;;;;;;;;;;11.30;90.10;;;;;;5017974;28;20345;-63
2022/12/04 14:38:33;;;;;;;;;;;11.60;90.20;;;;;;5064431;28;19931;-62
2022/12/04 14:41:00;;;;;;;;;;;11.50;90.20;;;;;;5067793;28;20016;-63
2022/12/04 14:43:26;;;;;;;;;;;;;;;;;;5034146;28;20375;-63
2022/12/04 14:46:10;;;;;;;;;;;11.50;90.20;;;;;;5025085;28;19932;-63
2022/12/04 14:48:36;;;;;;;;;;;;;;;;;;5030858;28;19925;-62
2022/12/04 14:51:02;;;;;;;;;;;11.70;90.30;;;;;;5034366;28;19995;-63
2022/12/04 14:53:45;;;;;;;;;;;11.60;90.30;;;;;;5035235;28;19971;-62
2022/12/04 14:56:10;;;;;;;;;;;11.50;90.30;;;;;;5050556;28;19925;-62